Time;durP1;ratioP1;P1;durP2;ratioP2;P2;SDS_P1;SDS_P2;PMS_P1;PMS_P2;Temp;Humidity;BMP_temperature;BMP_pressure;BME280_temperature;BME280_humidity;BME280_pressure;Samples;Min_cycle;Max_cycle;Signal;HPM_P1;HPM_P2
2023/07/03 00:02:20;;;;;;;8.80;1.55;;;12.90;99.90;;;;;;5070243;28;20446;-88
2023/07/03 00:04:46;;;;;;;8.30;1.52;;;13.00;99.90;;;;;;5069245;28;20029;-83
2023/07/03 00:07:13;;;;;;;10.05;1.98;;;13.20;99.90;;;;;;5068585;28;20032;-88
2023/07/03 00:09:38;;;;;;;6.43;1.65;;;13.30;99.90;;;;;;5070995;28;20055;-85
2023/07/03 00:12:04;;;;;;;7.78;1.70;;;13.40;99.90;;;;;;5070154;28;20060;-85
2023/07/03 00:14:30;;;;;;;10.93;1.48;;;13.40;99.90;;;;;;5067377;28;20032;-85
2023/07/03 00:16:55;;;;;;;8.70;1.52;;;13.50;99.90;;;;;;5086612;28;20066;-83
2023/07/03 00:19:26;;;;;;;9.38;1.33;;;13.50;99.90;;;;;;5081358;28;20040;-83
2023/07/03 00:21:52;;;;;;;7.97;1.48;;;13.50;99.90;;;;;;5061539;28;20039;-84
2023/07/03 00:24:17;;;;;;;3.88;1.25;;;13.50;99.90;;;;;;5067583;28;20067;-85
2023/07/03 00:26:43;;;;;;;5.93;1.58;;;13.40;99.90;;;;;;5052845;28;20024;-83
2023/07/03 00:29:08;;;;;;;7.95;1.65;;;13.40;99.90;;;;;;5054298;28;20021;-83
2023/07/03 00:31:34;;;;;;;6.88;1.50;;;13.30;99.90;;;;;;5070686;28;20044;-83
2023/07/03 00:34:00;;;;;;;7.18;1.42;;;13.20;99.90;;;;;;5069426;28;20054;-82
2023/07/03 00:36:26;;;;;;;8.98;1.48;;;13.10;99.90;;;;;;5065270;28;20123;-82
2023/07/03 00:38:57;;;;;;;9.40;1.73;;;13.00;99.90;;;;;;5086198;28;20035;-85
2023/07/03 00:41:23;;;;;;;10.50;1.50;;;12.90;99.90;;;;;;5066484;28;20062;-83
2023/07/03 00:43:49;;;;;;;10.32;1.70;;;12.70;99.90;;;;;;5070347;28;20016;-84
2023/07/03 00:46:15;;;;;;;7.35;1.50;;;12.70;99.90;;;;;;5069311;28;20039;-83
2023/07/03 00:48:41;;;;;;;7.78;1.60;;;12.70;99.90;;;;;;5068897;28;20024;-84
2023/07/03 00:51:08;;;;;;;9.00;1.60;;;12.70;99.90;;;;;;5070458;28;20032;-84
2023/07/03 00:53:34;;;;;;;10.57;1.83;;;12.80;99.90;;;;;;5069312;28;20032;-85
2023/07/03 00:56:01;;;;;;;11.73;2.42;;;12.90;99.90;;;;;;5060441;28;20027;-84
2023/07/03 00:58:27;;;;;;;10.80;2.20;;;13.00;99.90;;;;;;5068752;28;20037;-84
2023/07/03 01:01:29;;;;;;;10.30;2.03;;;13.10;99.90;;;;;;5068921;28;20606;-84
2023/07/03 01:04:04;;;;;;;5.93;1.40;;;13.20;99.90;;;;;;5082270;28;20100;-84
2023/07/03 01:06:39;;;;;;;9.30;1.85;;;13.30;99.90;;;;;;5075345;28;20044;-84
2023/07/03 01:09:08;;;;;;;8.70;1.55;;;13.40;99.90;;;;;;5053461;28;20052;-84
2023/07/03 01:11:35;;;;;;;9.52;1.75;;;13.40;99.90;;;;;;5066264;28;20024;-83
2023/07/03 01:14:02;;;;;;;6.88;1.73;;;13.50;99.90;;;;;;5069531;28;20075;-84
2023/07/03 01:16:30;;;;;;;4.47;1.27;;;13.50;99.90;;;;;;5085455;28;20031;-84
2023/07/03 01:18:58;;;;;;;7.18;2.00;;;13.50;99.90;;;;;;5068900;28;20048;-84
2023/07/03 01:21:34;;;;;;;7.20;1.52;;;13.40;99.90;;;;;;5069613;28;20120;-83
2023/07/03 01:24:12;;;;;;;8.63;1.42;;;13.30;99.90;;;;;;5069003;28;20029;-84
2023/07/03 01:26:39;;;;;;;8.55;1.90;;;13.20;99.90;;;;;;5068735;28;20098;-84
2023/07/03 01:29:06;;;;;;;9.82;1.50;;;13.10;99.90;;;;;;5067099;28;20035;-84
2023/07/03 01:31:35;;;;;;;9.20;2.15;;;12.90;99.90;;;;;;5064113;28;20377;-84
2023/07/03 01:34:01;;;;;;;9.68;1.77;;;12.80;99.90;;;;;;5064507;28;20044;-84
2023/07/03 01:36:28;;;;;;;9.40;1.90;;;12.60;99.90;;;;;;5069139;28;20046;-82
2023/07/03 01:38:55;;;;;;;8.82;1.67;;;12.60;99.90;;;;;;5073448;28;20774;-83
2023/07/03 01:41:20;;;;;;;7.90;1.48;;;12.50;99.90;;;;;;5065805;28;20036;-84
2023/07/03 01:43:46;;;;;;;6.80;1.92;;;12.50;99.90;;;;;;5066935;28;20029;-83
2023/07/03 01:46:15;;;;;;;11.55;1.92;;;12.40;99.90;;;;;;5054068;28;20021;-88
2023/07/03 01:48:41;;;;;;;10.10;1.90;;;12.40;99.90;;;;;;5068134;28;20028;-82
2023/07/03 01:51:11;;;;;;;10.48;1.90;;;12.30;99.90;;;;;;5067964;28;20112;-87
2023/07/03 01:53:42;;;;;;;7.47;1.70;;;12.40;99.90;;;;;;5067994;28;20059;-85
2023/07/03 01:56:23;;;;;;;13.88;2.35;;;12.40;99.90;;;;;;5049216;28;20103;-87
2023/07/03 01:59:04;;;;;;;12.95;2.17;;;12.30;99.90;;;;;;5067331;28;20033;-85
2023/07/03 02:01:44;;;;;;;;;;;12.30;99.90;;;;;;5066210;28;20035;-86
2023/07/03 02:04:33;;;;;;;14.77;3.90;;;12.30;99.90;;;;;;5066733;28;20370;-84
2023/07/03 02:06:59;;;;;;;9.15;1.90;;;12.30;99.90;;;;;;5065323;28;20068;-85
2023/07/03 02:09:25;;;;;;;11.05;1.63;;;12.20;99.90;;;;;;5066752;28;20036;-86
2023/07/03 02:11:52;;;;;;;13.45;2.22;;;12.20;99.90;;;;;;5066527;28;20739;-85
2023/07/03 02:14:18;;;;;;;11.23;2.13;;;12.10;99.90;;;;;;5065148;28;20094;-87
2023/07/03 02:16:47;;;;;;;13.38;1.85;;;12.10;99.90;;;;;;5057855;28;20029;-84
2023/07/03 02:19:15;;;;;;;13.43;2.20;;;12.10;99.90;;;;;;5046953;28;20073;-85
2023/07/03 02:21:43;;;;;;;11.80;2.30;;;12.10;99.90;;;;;;5046867;28;20021;-85
2023/07/03 02:24:10;;;;;;;10.48;1.92;;;12.10;99.90;;;;;;5050581;28;20028;-85
2023/07/03 02:26:35;;;;;;;9.82;1.90;;;12.10;99.90;;;;;;5067779;28;20020;-85
2023/07/03 02:29:01;;;;;;;10.20;1.98;;;12.10;99.90;;;;;;5068154;28;20514;-85
2023/07/03 02:31:26;;;;;;;11.65;2.13;;;12.10;99.90;;;;;;5066911;28;20029;-87
2023/07/03 02:33:52;;;;;;;12.98;2.60;;;12.10;99.90;;;;;;5066121;28;20116;-84
2023/07/03 02:36:17;;;;;;;14.85;2.17;;;12.10;99.90;;;;;;5066420;28;20033;-83
2023/07/03 02:38:43;;;;;;;6.40;1.92;;;12.20;99.90;;;;;;5067799;28;20068;-84
2023/07/03 02:41:09;;;;;;;9.65;2.00;;;12.20;99.90;;;;;;5068145;28;20036;-85
2023/07/03 02:43:35;;;;;;;7.97;2.00;;;12.20;99.90;;;;;;5065788;28;20066;-84
2023/07/03 02:46:05;;;;;;;19.25;3.03;;;12.30;99.90;;;;;;5066011;28;20025;-84
2023/07/03 02:48:31;;;;;;;12.35;1.98;;;12.30;99.90;;;;;;5067322;28;20895;-85
2023/07/03 02:50:57;;;;;;;8.38;1.70;;;12.30;99.90;;;;;;5067051;28;20033;-84
2023/07/03 02:53:23;;;;;;;11.32;1.95;;;12.40;99.90;;;;;;5065824;28;20551;-83
2023/07/03 02:55:49;;;;;;;9.25;1.83;;;12.40;99.90;;;;;;5067052;28;20020;-84
2023/07/03 02:58:17;;;;;;;17.05;2.05;;;12.50;99.90;;;;;;5069563;28;20041;-85
2023/07/03 03:00:43;;;;;;;11.15;2.00;;;12.50;99.90;;;;;;5068959;28;20123;-84
2023/07/03 03:03:09;;;;;;;11.43;2.20;;;12.50;99.90;;;;;;5069889;28;20119;-86
2023/07/03 03:05:34;;;;;;;9.00;1.90;;;12.60;99.90;;;;;;5060479;28;20029;-83
2023/07/03 03:08:00;;;;;;;7.40;2.25;;;12.60;99.90;;;;;;5051508;28;20037;-85
2023/07/03 03:10:25;;;;;;;9.57;2.25;;;12.60;99.90;;;;;;5067001;28;20116;-86
2023/07/03 03:12:51;;;;;;;13.77;2.20;;;12.50;99.90;;;;;;5067122;28;20025;-84
2023/07/03 03:15:20;;;;;;;8.55;2.00;;;12.40;99.90;;;;;;5068808;28;20131;-84
2023/07/03 03:17:45;;;;;;;14.63;1.92;;;12.40;99.90;;;;;;5071414;28;20025;-85
2023/07/03 03:20:13;;;;;;;12.15;1.95;;;12.30;99.90;;;;;;5069762;28;20058;-83
2023/07/03 03:22:40;;;;;;;12.25;2.15;;;12.20;99.90;;;;;;5070114;28;20020;-84
2023/07/03 03:25:06;;;;;;;9.07;2.05;;;12.20;99.90;;;;;;5068578;28;20039;-86
2023/07/03 03:27:32;;;;;;;9.70;2.35;;;12.10;99.90;;;;;;5068233;28;20017;-84
2023/07/03 03:29:58;;;;;;;11.25;2.33;;;12.10;99.90;;;;;;5060407;28;20047;-85
2023/07/03 03:32:24;;;;;;;17.80;2.45;;;12.10;99.90;;;;;;5070886;28;20107;-84
2023/07/03 03:34:50;;;;;;;10.95;2.08;;;12.10;99.90;;;;;;5070258;28;20119;-85
2023/07/03 03:37:16;;;;;;;13.90;2.30;;;12.10;99.90;;;;;;5071068;28;20689;-85
2023/07/03 03:39:42;;;;;;;9.10;2.17;;;12.10;99.90;;;;;;5063032;28;20056;-84
2023/07/03 03:42:09;;;;;;;15.60;2.17;;;12.20;99.90;;;;;;5051738;28;20025;-83
2023/07/03 03:44:35;;;;;;;13.85;2.35;;;12.20;99.90;;;;;;5068649;28;20021;-85
2023/07/03 03:47:02;;;;;;;13.38;2.63;;;12.30;99.90;;;;;;5087495;28;20036;-84
2023/07/03 03:49:28;;;;;;;12.80;2.28;;;12.40;99.90;;;;;;5086602;28;20297;-86
2023/07/03 03:51:54;;;;;;;17.58;2.20;;;12.40;99.90;;;;;;5070960;28;20103;-84
2023/07/03 03:54:20;;;;;;;10.77;2.30;;;12.40;99.90;;;;;;5063527;28;20051;-86
2023/07/03 03:56:46;;;;;;;15.07;2.63;;;12.40;99.90;;;;;;5067233;28;20109;-86
2023/07/03 03:59:11;;;;;;;13.88;2.40;;;12.50;99.90;;;;;;5059041;28;20021;-85
2023/07/03 04:01:37;;;;;;;13.07;2.33;;;12.50;99.90;;;;;;5071125;28;20125;-83
2023/07/03 04:04:03;;;;;;;8.35;2.20;;;12.60;99.90;;;;;;5059861;28;20036;-85
2023/07/03 04:06:29;;;;;;;18.20;2.47;;;12.70;99.90;;;;;;5069837;28;20484;-86
2023/07/03 04:08:58;;;;;;;13.15;2.20;;;12.70;99.90;;;;;;5067084;28;20100;-86
2023/07/03 04:11:25;;;;;;;14.35;2.05;;;12.80;99.90;;;;;;5062371;28;20086;-88
2023/07/03 04:13:50;;;;;;;10.40;2.00;;;12.80;99.90;;;;;;5067418;28;20048;-87
2023/07/03 04:16:16;;;;;;;12.40;1.80;;;12.90;99.90;;;;;;5064048;28;20032;-86
2023/07/03 04:18:42;;;;;;;15.43;2.60;;;13.00;99.90;;;;;;5059008;28;20619;-85
2023/07/03 04:21:07;;;;;;;10.05;2.10;;;13.10;99.90;;;;;;5067560;28;20055;-86
2023/07/03 04:23:33;;;;;;;11.05;2.00;;;13.20;99.90;;;;;;5069292;28;20021;-85
2023/07/03 04:25:59;;;;;;;12.32;2.40;;;13.30;99.90;;;;;;5069912;28;20047;-86
2023/07/03 04:28:24;;;;;;;11.88;2.10;;;13.40;99.90;;;;;;5067848;28;20045;-84
2023/07/03 04:30:50;;;;;;;14.88;2.45;;;13.40;99.90;;;;;;5069395;28;20028;-86
2023/07/03 04:33:16;;;;;;;8.98;2.03;;;13.40;99.90;;;;;;5069699;28;20395;-87
2023/07/03 04:35:42;;;;;;;13.75;2.00;;;13.40;99.90;;;;;;5069002;28;20070;-85
2023/07/03 04:38:08;;;;;;;13.65;2.20;;;13.60;99.90;;;;;;5060071;28;20384;-87
2023/07/03 04:40:34;;;;;;;8.73;1.77;;;13.70;99.90;;;;;;5061879;28;20057;-86
2023/07/03 04:43:00;;;;;;;11.90;2.17;;;13.70;99.90;;;;;;5056766;28;20079;-84
2023/07/03 04:45:28;;;;;;;13.38;2.10;;;13.80;99.90;;;;;;5068959;28;20488;-87
2023/07/03 04:47:53;;;;;;;11.32;2.30;;;13.90;99.90;;;;;;5051273;28;20125;-83
2023/07/03 04:50:24;;;;;;;15.80;2.47;;;14.00;99.90;;;;;;5060784;28;20099;-83
2023/07/03 04:52:51;;;;;;;15.88;2.45;;;14.10;99.90;;;;;;5061286;28;20068;-85
2023/07/03 04:55:17;;;;;;;14.88;2.42;;;14.20;99.90;;;;;;5057318;28;20110;-87
2023/07/03 04:57:43;;;;;;;13.88;2.50;;;14.30;99.90;;;;;;5069850;28;20056;-86
2023/07/03 05:00:14;;;;;;;9.07;2.35;;;14.50;99.90;;;;;;5050082;28;20037;-86
2023/07/03 05:02:48;;;;;;;16.15;2.47;;;14.80;99.90;;;;;;5063486;28;20024;-86
2023/07/03 05:05:16;;;;;;;18.13;2.90;;;14.90;99.90;;;;;;5069154;28;20063;-88
2023/07/03 05:07:43;;;;;;;12.02;2.60;;;15.00;99.90;;;;;;5069884;28;20541;-87
2023/07/03 05:10:10;;;;;;;13.48;2.42;;;15.10;99.90;;;;;;5067989;28;20675;-88
2023/07/03 05:12:37;;;;;;;10.20;2.30;;;15.10;99.90;;;;;;5063592;28;20096;-84
2023/07/03 05:15:08;;;;;;;12.90;2.33;;;15.10;99.90;;;;;;5061175;28;20036;-86
2023/07/03 05:17:35;;;;;;;17.10;2.85;;;15.10;99.90;;;;;;5071557;28;20048;-85
2023/07/03 05:20:01;;;;;;;9.82;2.33;;;15.20;99.90;;;;;;5071131;28;20052;-86
2023/07/03 05:22:27;;;;;;;15.30;2.58;;;15.20;99.90;;;;;;5068474;28;20028;-85
2023/07/03 05:24:55;;;;;;;10.30;2.60;;;15.20;99.90;;;;;;5068766;28;20718;-84
2023/07/03 05:27:20;;;;;;;14.88;2.30;;;15.20;99.90;;;;;;5070374;28;20020;-87
2023/07/03 05:29:46;;;;;;;15.40;2.67;;;15.10;99.90;;;;;;5063574;28;20035;-85
2023/07/03 05:32:12;;;;;;;8.77;1.85;;;15.10;99.90;;;;;;5065113;28;20093;-85
2023/07/03 05:34:38;;;;;;;12.23;2.30;;;15.10;99.90;;;;;;5071848;28;20036;-84
2023/07/03 05:37:05;;;;;;;10.55;2.08;;;15.00;99.90;;;;;;5089370;28;20028;-84
2023/07/03 05:39:30;;;;;;;9.63;2.33;;;15.10;99.90;;;;;;5090823;28;20081;-85
2023/07/03 05:41:56;;;;;;;12.73;2.28;;;15.10;99.90;;;;;;5073983;28;20621;-87
2023/07/03 05:44:22;;;;;;;11.65;1.77;;;15.00;99.90;;;;;;5067317;28;20029;-86
2023/07/03 05:46:47;;;;;;;14.38;2.60;;;15.10;99.90;;;;;;5068123;28;20028;-85
2023/07/03 05:49:13;;;;;;;11.23;2.00;;;15.00;99.90;;;;;;5069783;28;20044;-84
2023/07/03 05:51:38;;;;;;;13.15;2.05;;;15.00;99.90;;;;;;5068240;28;20036;-85
2023/07/03 05:54:04;;;;;;;13.45;2.72;;;15.00;99.90;;;;;;5068410;28;20036;-85
2023/07/03 05:56:30;;;;;;;10.25;1.83;;;15.00;99.90;;;;;;5068761;28;20063;-85
2023/07/03 05:58:55;;;;;;;15.25;2.20;;;15.00;99.90;;;;;;5067364;28;20028;-84
2023/07/03 06:01:21;;;;;;;8.50;1.85;;;15.10;99.90;;;;;;5059306;28;20024;-86
2023/07/03 06:03:47;;;;;;;15.27;1.90;;;15.10;99.90;;;;;;5067667;28;20072;-86
2023/07/03 06:06:13;;;;;;;11.57;2.63;;;15.20;99.90;;;;;;5069757;28;20021;-85
2023/07/03 06:08:39;;;;;;;116.38;49.45;;;15.10;99.90;;;;;;5067865;28;20024;-86
2023/07/03 06:11:05;;;;;;;15.65;2.40;;;15.20;99.90;;;;;;5069727;28;20078;-84
2023/07/03 06:13:31;;;;;;;10.70;1.90;;;15.40;99.90;;;;;;5068522;28;20043;-85
2023/07/03 06:15:56;;;;;;;13.38;2.40;;;15.50;99.90;;;;;;5067532;28;20504;-88
2023/07/03 06:18:22;;;;;;;13.35;2.47;;;15.50;99.90;;;;;;5063857;28;20722;-86
2023/07/03 06:20:48;;;;;;;11.57;2.05;;;15.50;99.90;;;;;;5068753;28;20040;-87
2023/07/03 06:23:15;;;;;;;7.75;1.60;;;15.50;99.90;;;;;;5068822;28;20044;-88
2023/07/03 06:25:40;;;;;;;223.13;113.45;;;15.60;99.90;;;;;;5069656;28;20389;-85
2023/07/03 06:28:06;;;;;;;15.45;3.78;;;15.70;99.90;;;;;;5064698;28;20035;-85
2023/07/03 06:30:32;;;;;;;10.55;2.22;;;15.80;99.90;;;;;;5066959;28;20036;-85
2023/07/03 06:32:57;;;;;;;12.32;1.90;;;16.00;99.90;;;;;;5065761;28;20047;-86
2023/07/03 06:35:23;;;;;;;12.43;1.88;;;16.10;99.90;;;;;;5068600;28;20052;-87
2023/07/03 06:37:52;;;;;;;13.65;1.65;;;16.10;99.90;;;;;;5068308;28;20024;-88
2023/07/03 06:40:19;;;;;;;12.07;3.03;;;16.10;99.90;;;;;;5064647;28;20052;-88
2023/07/03 06:42:44;;;;;;;26.25;9.80;;;16.30;99.90;;;;;;5066537;28;20352;-89
2023/07/03 06:45:11;;;;;;;9.57;2.00;;;16.40;99.90;;;;;;5068848;28;20035;-88
2023/07/03 06:47:37;;;;;;;9.40;1.63;;;16.40;99.90;;;;;;5061919;28;20136;-87
2023/07/03 06:50:03;;;;;;;8.20;1.52;;;16.60;99.90;;;;;;5060440;28;20036;-86
2023/07/03 06:52:28;;;;;;;9.68;1.83;;;16.70;99.90;;;;;;5059153;28;20788;-86
2023/07/03 06:54:54;;;;;;;8.25;1.65;;;16.90;99.90;;;;;;5056408;28;20048;-86
2023/07/03 06:57:19;;;;;;;33.60;15.60;;;16.80;99.90;;;;;;5058602;28;20628;-83
2023/07/03 06:59:45;;;;;;;22.38;8.88;;;16.70;99.90;;;;;;5055080;28;20127;-84
2023/07/03 07:02:11;;;;;;;12.88;2.13;;;16.80;99.90;;;;;;5069907;28;20739;-83
2023/07/03 07:04:36;;;;;;;7.25;1.90;;;17.00;99.90;;;;;;5055338;28;20073;-82
2023/07/03 07:07:02;;;;;;;12.75;1.60;;;17.20;99.90;;;;;;5053404;28;20060;-82
2023/07/03 07:09:27;;;;;;;8.52;1.60;;;17.50;99.90;;;;;;5056137;28;20119;-83
2023/07/03 07:11:53;;;;;;;9.35;1.58;;;18.00;99.90;;;;;;5050425;28;20025;-85
2023/07/03 07:14:19;;;;;;;9.75;1.15;;;18.40;99.90;;;;;;5047957;28;20044;-83
2023/07/03 07:16:44;;;;;;;9.85;1.50;;;18.90;99.90;;;;;;5055893;28;20454;-84
2023/07/03 07:19:11;;;;;;;9.40;1.63;;;19.40;99.90;;;;;;5057947;28;20102;-83
2023/07/03 07:21:39;;;;;;;11.98;1.70;;;19.10;99.90;;;;;;5060210;28;20032;-84
2023/07/03 07:24:20;;;;;;;10.40;1.63;;;19.10;99.90;;;;;;5064885;28;20028;-84
2023/07/03 07:26:46;;;;;;;7.63;1.45;;;18.60;99.90;;;;;;5068115;28;20687;-84
2023/07/03 07:29:12;;;;;;;9.27;1.42;;;18.50;99.90;;;;;;5055423;28;20028;-84
2023/07/03 07:31:38;;;;;;;8.68;1.55;;;18.70;99.90;;;;;;5057664;28;20832;-85
2023/07/03 07:34:05;;;;;;;10.43;1.60;;;19.50;99.90;;;;;;5062535;28;20133;-85
2023/07/03 07:36:32;;;;;;;6.05;1.40;;;21.30;99.90;;;;;;5062673;28;20488;-85
2023/07/03 07:38:59;;;;;;;6.70;1.27;;;23.20;95.80;;;;;;5060909;28;20033;-85
2023/07/03 07:41:25;;;;;;;6.22;1.10;;;25.50;87.10;;;;;;5051097;28;20028;-85
2023/07/03 07:43:52;;;;;;;9.95;1.60;;;27.50;72.60;;;;;;4036237;28;10020722;-86
2023/07/03 07:46:18;;;;;;;7.15;1.55;;;29.10;62.40;;;;;;5079665;28;20317;-83
2023/07/03 07:48:47;;;;;;;6.43;1.48;;;30.00;57.20;;;;;;5055301;28;20032;-84
2023/07/03 07:51:13;;;;;;;6.65;1.45;;;30.70;53.90;;;;;;5071889;28;20120;-84
2023/07/03 07:53:39;;;;;;;7.97;1.27;;;31.60;50.00;;;;;;5053358;28;20716;-83
2023/07/03 07:56:10;;;;;;;7.38;1.30;;;31.80;47.70;;;;;;5080584;28;20024;-84
2023/07/03 07:58:36;;;;;;;5.60;1.40;;;32.30;46.60;;;;;;5057594;28;20040;-82
2023/07/03 08:01:02;;;;;;;6.13;1.50;;;31.60;45.50;;;;;;5066597;28;20094;-84
2023/07/03 08:03:28;;;;;;;5.70;1.20;;;30.90;45.20;;;;;;5066932;28;20750;-82
2023/07/03 08:05:58;;;;;;;6.00;1.20;;;31.00;46.90;;;;;;5054521;28;20033;-83
2023/07/03 08:08:26;;;;;;;7.18;1.30;;;32.00;46.20;;;;;;5055775;28;20111;-84
2023/07/03 08:11:01;;;;;;;6.43;1.50;;;32.10;43.20;;;;;;5065707;28;20029;-82
2023/07/03 08:13:28;;;;;;;7.90;1.20;;;33.30;43.70;;;;;;5047608;28;20044;-81
2023/07/03 08:15:54;;;;;;;6.82;1.20;;;33.10;42.40;;;;;;5047890;28;20029;-82
2023/07/03 08:18:21;;;;;;;4.97;1.17;;;32.00;43.10;;;;;;5063702;28;20047;-82
2023/07/03 08:20:47;;;;;;;3.35;1.02;;;30.70;45.60;;;;;;5067005;28;20139;-82
2023/07/03 08:23:13;;;;;;;8.38;1.70;;;29.90;47.00;;;;;;5050095;28;20037;-84
2023/07/03 08:25:41;;;;;;;6.28;1.30;;;28.90;47.50;;;;;;5067724;28;20058;-83
2023/07/03 08:28:08;;;;;;;7.07;1.30;;;27.70;48.60;;;;;;5067807;28;20024;-84
2023/07/03 08:30:33;;;;;;;7.10;1.50;;;26.40;50.20;;;;;;5084023;28;20097;-84
2023/07/03 08:32:59;;;;;;;3.80;1.27;;;26.70;55.30;;;;;;5076466;28;20036;-83
2023/07/03 08:35:25;;;;;;;6.35;1.27;;;28.50;52.00;;;;;;5067531;28;20044;-82
2023/07/03 08:37:52;;;;;;;5.35;1.30;;;30.60;46.50;;;;;;5065634;28;20035;-84
2023/07/03 08:40:20;;;;;;;3.67;0.98;;;32.30;43.90;;;;;;5066622;28;20488;-81
2023/07/03 08:42:57;;;;;;;7.20;1.40;;;33.70;41.90;;;;;;5062573;28;20031;-82
2023/07/03 08:45:33;;;;;;;4.47;1.25;;;33.90;41.70;;;;;;5059362;28;20484;-83
2023/07/03 08:48:01;;;;;;;5.00;1.40;;;33.10;42.20;;;;;;5064199;28;20047;-83
2023/07/03 08:50:29;;;;;;;5.60;1.23;;;32.30;44.30;;;;;;5065769;28;20063;-83
2023/07/03 08:53:00;;;;;;;6.35;1.23;;;31.30;42.40;;;;;;5064979;28;20131;-83
2023/07/03 08:55:49;;;;;;;6.60;1.23;;;30.10;43.50;;;;;;5065046;28;20048;-82
2023/07/03 08:58:15;;;;;;;4.85;1.10;;;28.30;45.50;;;;;;5063467;28;20029;-82
2023/07/03 09:01:04;;;;;;;5.93;1.15;;;26.70;47.50;;;;;;5070062;28;20123;-84
2023/07/03 09:03:59;;;;;;;5.63;1.10;;;25.20;50.30;;;;;;5064386;28;20131;-84
2023/07/03 09:06:54;;;;;;;5.07;1.50;;;24.50;51.90;;;;;;5059143;28;20862;-83
2023/07/03 09:09:46;;;;;;;5.43;1.17;;;24.80;54.30;;;;;;5051161;28;20060;-82
2023/07/03 09:12:24;;;;;;;6.03;1.45;;;25.20;54.00;;;;;;5055957;28;20063;-83
2023/07/03 09:15:09;;;;;;;5.28;1.10;;;25.70;51.10;;;;;;5057595;28;20095;-82
2023/07/03 09:17:36;;;;;;;5.65;1.20;;;25.70;50.40;;;;;;5071278;28;20383;-83
2023/07/03 09:20:05;;;;;;;4.40;1.13;;;25.60;50.50;;;;;;5057106;28;20422;-80
2023/07/03 09:22:38;;;;;;;7.72;1.40;;;25.30;50.60;;;;;;5060780;28;20021;-87
2023/07/03 09:25:06;;;;;;;6.72;1.23;;;25.00;52.10;;;;;;5060315;28;20042;-85
2023/07/03 09:27:31;;;;;;;5.28;1.40;;;25.10;54.10;;;;;;5054337;28;20032;-87
2023/07/03 09:30:02;;;;;;;8.57;1.70;;;25.70;52.90;;;;;;5066032;28;20044;-80
2023/07/03 09:32:29;;;;;;;6.20;1.20;;;25.90;55.40;;;;;;5063851;28;20036;-85
2023/07/03 09:35:01;;;;;;;6.05;1.67;;;26.70;52.70;;;;;;5060079;28;20052;-85
2023/07/03 09:37:27;;;;;;;4.93;1.05;;;27.50;51.90;;;;;;5052965;28;20025;-87
2023/07/03 09:39:53;;;;;;;6.20;1.25;;;28.10;49.80;;;;;;5062254;28;20029;-89
2023/07/03 09:42:21;;;;;;;3.38;1.05;;;28.50;48.80;;;;;;5065112;28;20037;-87
2023/07/03 09:44:46;;;;;;;5.47;1.42;;;28.20;48.40;;;;;;5061736;28;20195;-89
2023/07/03 09:47:26;;;;;;;7.60;1.33;;;27.30;48.90;;;;;;5064414;28;20099;-86
2023/07/03 09:49:52;;;;;;;8.32;1.50;;;27.90;49.50;;;;;;5067126;28;20039;-86
2023/07/03 09:52:18;;;;;;;10.27;1.58;;;28.80;49.50;;;;;;5063852;28;20633;-86
2023/07/03 09:54:46;;;;;;;6.20;1.30;;;28.90;48.60;;;;;;4705652;28;10000411;-88
2023/07/03 09:57:22;;;;;;;7.10;1.60;;;30.20;49.00;;;;;;5079151;28;20477;-86
2023/07/03 09:59:47;;;;;;;4.47;1.17;;;31.80;41.70;;;;;;5059046;28;20060;-88
2023/07/03 10:02:13;;;;;;;5.13;1.42;;;33.40;46.50;;;;;;5055542;28;20145;-88
2023/07/03 10:04:44;;;;;;;3.30;0.95;;;35.80;40.20;;;;;;5057569;28;20056;-89
2023/07/03 10:07:14;;;;;;;3.45;1.25;;;37.60;36.60;;;;;;5052697;28;20493;-86
2023/07/03 10:09:41;;;;;;;4.68;1.38;;;38.20;37.10;;;;;;5074701;28;20124;-85
2023/07/03 10:12:38;;;;;;;6.22;1.35;;;37.10;34.00;;;;;;5061990;28;20044;-82
2023/07/03 10:15:14;;;;;;;3.80;1.30;;;34.80;37.10;;;;;;5046803;28;20110;-86
2023/07/03 10:18:23;;;;;;;7.00;1.65;;;32.70;39.90;;;;;;5073162;28;20024;-87
2023/07/03 10:20:50;;;;;;;6.13;1.48;;;31.30;44.10;;;;;;5053254;28;20078;-89
2023/07/03 10:23:25;;;;;;;6.05;1.70;;;32.60;41.90;;;;;;5058004;28;20036;-88
2023/07/03 10:26:28;;;;;;;7.68;1.70;;;33.40;39.20;;;;;;5073508;28;20021;-88
2023/07/03 10:29:13;;;;;;;5.88;1.75;;;32.10;41.40;;;;;;5063887;28;20047;-87
2023/07/03 10:31:50;;;;;;;4.93;1.67;;;30.70;42.20;;;;;;5066348;28;20032;-82
2023/07/03 10:34:25;;;;;;;7.78;1.50;;;29.30;43.00;;;;;;5056889;28;20044;-86
2023/07/03 10:36:59;;;;;;;8.25;1.58;;;27.20;47.80;;;;;;5058907;28;20600;-86
2023/07/03 10:39:32;;;;;;;7.07;1.55;;;25.40;51.90;;;;;;5066165;28;20032;-86
2023/07/03 10:42:02;;;;;;;9.25;1.75;;;24.90;56.90;;;;;;5065562;28;20025;-84
2023/07/03 10:44:36;;;;;;;6.60;1.80;;;24.70;61.10;;;;;;5052754;28;20030;-90
2023/07/03 10:47:23;;;;;;;5.97;1.58;;;26.20;64.70;;;;;;5060372;28;20029;-85
2023/07/03 10:49:49;;;;;;;6.68;1.60;;;28.70;54.10;;;;;;5067387;28;20499;-89
2023/07/03 10:52:18;;;;;;;8.52;2.10;;;27.70;53.90;;;;;;5065164;28;20033;-86
2023/07/03 10:55:11;;;;;;;8.82;1.75;;;28.80;54.10;;;;;;5065888;28;20053;-87
2023/07/03 10:57:47;;;;;;;7.15;1.77;;;30.50;51.80;;;;;;5062213;28;20035;-87
2023/07/03 11:00:20;;;;;;;6.10;1.80;;;31.30;47.00;;;;;;5063564;28;20105;-83
2023/07/03 11:02:53;;;;;;;11.32;1.90;;;30.90;46.90;;;;;;5062650;28;20071;-89
2023/07/03 11:05:50;;;;;;;7.78;2.17;;;29.50;50.40;;;;;;5062562;28;20120;-86
2023/07/03 11:08:34;;;;;;;10.10;2.40;;;28.80;51.40;;;;;;5060956;28;20504;-87
2023/07/03 11:11:37;;;;;;;12.15;2.15;;;29.50;51.60;;;;;;5053897;28;20067;-88
2023/07/03 11:14:13;;;;;;;8.07;1.60;;;32.20;52.60;;;;;;5064143;28;20053;-85
2023/07/03 11:17:04;;;;;;;7.05;1.90;;;33.30;45.70;;;;;;5065277;28;20028;-84
2023/07/03 11:19:39;;;;;;;9.52;2.20;;;32.90;43.60;;;;;;5046931;28;20040;-81
2023/07/03 11:22:15;;;;;;;7.10;1.90;;;32.30;47.10;;;;;;5060311;28;20396;-81
2023/07/03 11:24:47;;;;;;;10.05;1.80;;;32.40;43.80;;;;;;5049962;28;20031;-80
2023/07/03 11:27:19;;;;;;;8.80;2.00;;;32.40;46.60;;;;;;5075897;28;20036;-81
2023/07/03 11:29:45;;;;;;;10.05;2.00;;;31.40;44.70;;;;;;5066485;28;20024;-83
2023/07/03 11:32:13;;;;;;;12.50;2.47;;;29.80;47.70;;;;;;5064559;28;20035;-83
2023/07/03 11:34:40;;;;;;;8.75;2.00;;;28.50;50.10;;;;;;5049671;28;20127;-81
2023/07/03 11:37:44;;;;;;;9.77;1.65;;;28.30;51.40;;;;;;5060157;28;20036;-81
2023/07/03 11:40:25;;;;;;;11.38;1.73;;;28.60;55.80;;;;;;5051216;28;20028;-79
2023/07/03 11:43:17;;;;;;;9.90;2.25;;;27.90;55.60;;;;;;5055690;28;20028;-81
2023/07/03 11:45:55;;;;;;;11.57;2.15;;;28.00;55.30;;;;;;5053930;28;20087;-79
2023/07/03 11:48:38;;;;;;;12.75;2.15;;;27.80;54.70;;;;;;5055541;28;20059;-79
2023/07/03 11:51:07;;;;;;;11.20;2.08;;;27.10;62.80;;;;;;5058855;28;20020;-79
2023/07/03 11:53:35;;;;;;;11.77;2.20;;;27.00;59.40;;;;;;5062415;28;20043;-80
2023/07/03 11:56:06;;;;;;;10.18;1.88;;;27.00;59.00;;;;;;5059562;28;20052;-80
2023/07/03 11:58:35;;;;;;;;;;;26.80;59.60;;;;;;5056296;28;20033;-79
2023/07/03 12:01:24;;;;;;;10.40;2.25;;;26.60;61.30;;;;;;5056825;28;19923;-81
2023/07/03 12:03:51;;;;;;;8.43;2.22;;;26.40;61.50;;;;;;5057129;28;20493;-78
2023/07/03 12:06:39;;;;;;;9.00;2.13;;;25.70;61.90;;;;;;5073044;28;20107;-78
2023/07/03 12:09:26;;;;;;;14.15;2.30;;;25.20;70.00;;;;;;5057103;28;20032;-80
2023/07/03 12:12:02;;;;;;;11.40;2.08;;;24.40;74.20;;;;;;4705236;28;10000151;-80
2023/07/03 12:14:44;;;;;;;10.80;2.08;;;24.90;67.80;;;;;;5058855;28;20105;-78
2023/07/03 12:17:36;;;;;;;9.50;2.05;;;25.50;68.40;;;;;;5057727;28;20108;-78
2023/07/03 12:20:09;;;;;;;12.98;2.25;;;27.00;67.40;;;;;;5054055;28;20045;-80
2023/07/03 12:22:41;;;;;;;8.40;1.95;;;26.60;59.20;;;;;;5055769;28;20029;-78
2023/07/03 12:25:16;;;;;;;8.98;2.00;;;26.60;63.70;;;;;;5061794;28;20024;-78
2023/07/03 12:27:42;;;;;;;9.60;2.50;;;25.20;65.60;;;;;;5060137;28;20037;-78
2023/07/03 12:30:21;;;;;;;15.70;2.90;;;24.50;68.60;;;;;;5059883;28;20043;-80
2023/07/03 12:32:48;;;;;;;10.82;2.38;;;24.10;75.50;;;;;;5053783;28;20044;-81
2023/07/03 12:35:22;;;;;;;11.23;2.85;;;24.60;85.10;;;;;;5070770;28;20044;-80
2023/07/03 12:37:53;;;;;;;9.43;2.05;;;25.70;71.30;;;;;;5059235;28;20043;-83
2023/07/03 12:40:20;;;;;;;7.72;1.92;;;25.50;70.80;;;;;;5055983;28;20046;-81
2023/07/03 12:42:52;;;;;;;13.90;2.60;;;24.50;71.30;;;;;;5054400;28;20078;-80
2023/07/03 12:45:21;;;;;;;10.63;2.42;;;24.70;80.40;;;;;;5060243;28;20052;-81
2023/07/03 12:48:13;;;;;;;10.60;2.00;;;24.60;80.10;;;;;;5054996;28;20116;-78
2023/07/03 12:50:47;;;;;;;13.23;2.67;;;24.30;81.80;;;;;;5053619;28;20059;-82
2023/07/03 12:53:13;;;;;;;16.48;2.50;;;24.80;75.10;;;;;;5054348;28;20024;-80
2023/07/03 12:55:41;;;;;;;11.02;2.33;;;24.70;77.80;;;;;;5058774;28;20526;-80
2023/07/03 12:58:07;;;;;;;12.18;2.25;;;25.00;89.80;;;;;;5060909;28;20024;-80